createdAt,value
2018-04-28T00:01:59.643Z,10.00
2018-04-28T00:04:25.981Z,23.83
2018-04-28T00:06:52.998Z,12.43
2018-04-28T00:09:19.284Z,14.23
2018-04-28T00:11:45.617Z,14.73
2018-04-28T00:14:11.874Z,16.87
2018-04-28T00:16:54.406Z,10.93
2018-04-28T00:19:24.783Z,15.90
2018-04-28T00:21:51.071Z,10.67
2018-04-28T00:24:19.361Z,9.67
2018-04-28T00:26:48.093Z,8.00
2018-04-28T00:29:14.378Z,15.70
2018-04-28T00:31:57.395Z,8.60
2018-04-28T00:34:25.606Z,9.00
2018-04-28T00:37:00.024Z,8.70
2018-04-28T00:39:26.355Z,6.00
2018-04-28T00:41:52.648Z,11.33
2018-04-28T00:44:18.953Z,8.10
2018-04-28T00:52:42.990Z,5.83
2018-04-28T00:55:21.007Z,8.37
2018-04-28T00:58:06.113Z,10.90
2018-04-28T01:03:55.772Z,12.13
2018-04-28T01:06:22.060Z,6.90
2018-04-28T01:08:48.368Z,13.10
2018-04-28T01:11:17.539Z,11.17
2018-04-28T01:13:44.863Z,7.37
2018-04-28T01:16:11.965Z,15.17
2018-04-28T01:18:50.959Z,6.30
2018-04-28T01:21:17.976Z,9.30
2018-04-28T01:23:47.928Z,5.70
2018-04-28T01:26:27.096Z,7.37
2018-04-28T01:28:56.225Z,10.23
2018-04-28T01:31:22.528Z,12.43
2018-04-28T01:34:03.924Z,10.23
2018-04-28T01:36:30.303Z,6.03
2018-04-28T01:39:13.014Z,15.17
2018-04-28T01:45:21.697Z,9.50
2018-04-28T01:51:03.022Z,7.23
2018-04-28T01:53:30.167Z,5.90
2018-04-28T01:55:57.320Z,5.30
2018-04-28T01:58:26.517Z,5.40
2018-04-28T02:04:04.545Z,6.30
2018-04-28T02:06:43.662Z,7.20
2018-04-28T02:09:10.760Z,7.50
2018-04-28T02:11:41.977Z,12.50
2018-04-28T02:14:28.199Z,15.03
2018-04-28T02:17:02.672Z,13.80
2018-04-28T02:23:01.670Z,12.43
2018-04-28T02:25:45.538Z,12.40
2018-04-28T02:28:17.679Z,6.60
2018-04-28T02:33:48.990Z,13.03
2018-04-28T02:36:17.088Z,10.03
2018-04-28T02:38:43.400Z,10.20
2018-04-28T02:41:17.574Z,18.60
2018-04-28T02:43:55.703Z,7.17
2018-04-28T02:46:24.870Z,10.07
2018-04-28T02:48:58.397Z,6.60
2018-04-28T02:51:49.493Z,9.00
2018-04-28T02:54:48.477Z,6.43
2018-04-28T02:57:16.467Z,10.37
2018-04-28T02:59:46.443Z,12.13
2018-04-28T03:02:22.837Z,9.07
2018-04-28T03:04:58.025Z,8.40
2018-04-28T03:07:41.569Z,6.47
2018-04-28T03:10:13.812Z,11.23
2018-04-28T03:12:40.101Z,12.93
2018-04-28T03:15:06.506Z,17.93
2018-04-28T03:17:38.458Z,7.27
2018-04-28T03:20:17.768Z,6.70
2018-04-28T03:22:46.969Z,6.63
2018-04-28T03:25:13.304Z,8.83
2018-04-28T03:27:55.634Z,10.93
2018-04-28T03:33:33.518Z,6.50
2018-04-28T03:36:13.737Z,10.10
2018-04-28T03:38:40.024Z,9.03
2018-04-28T03:41:24.174Z,14.50
2018-04-28T03:44:11.303Z,9.67
2018-04-28T03:46:43.534Z,12.73
2018-04-28T03:49:25.551Z,7.63
2018-04-28T03:51:55.538Z,10.77
2018-04-28T03:54:25.595Z,12.30
2018-04-28T03:56:52.683Z,10.17
2018-04-28T04:02:52.684Z,12.57
2018-04-28T04:05:19.826Z,9.60
2018-04-28T04:07:49.965Z,12.10
2018-04-28T04:10:28.003Z,18.33
2018-04-28T04:13:06.139Z,8.30
2018-04-28T04:15:42.471Z,6.67
2018-04-28T04:18:15.845Z,13.53
2018-04-28T04:24:17.465Z,16.27
2018-04-28T04:26:54.957Z,6.57
2018-04-28T04:29:33.804Z,8.63
2018-04-28T04:32:09.979Z,7.03
2018-04-28T04:34:52.118Z,9.17
2018-04-28T04:37:25.288Z,6.90
2018-04-28T04:39:55.409Z,10.43
2018-04-28T04:42:23.506Z,9.90
2018-04-28T04:44:53.652Z,11.03
2018-04-28T04:47:33.176Z,6.97
2018-04-28T04:53:17.725Z,8.40
2018-04-28T04:58:48.220Z,11.00
2018-04-28T05:01:31.801Z,8.80
2018-04-28T05:07:10.812Z,7.20
2018-04-28T05:09:40.658Z,11.33
2018-04-28T05:15:44.861Z,3.40
2018-04-28T05:18:29.525Z,5.70
2018-04-28T05:21:06.892Z,5.13
2018-04-28T05:23:38.150Z,3.47
2018-04-28T05:30:13.166Z,4.23
2018-04-28T05:32:52.808Z,5.53
2018-04-28T05:38:51.813Z,3.43
2018-04-28T05:41:31.243Z,4.57
2018-04-28T05:47:32.463Z,5.20
2018-04-28T05:53:19.950Z,2.47
2018-04-28T05:59:05.102Z,8.57
2018-04-28T06:04:59.550Z,4.00
2018-04-28T06:07:34.111Z,8.43
2018-04-28T06:10:07.112Z,5.77
2018-04-28T06:12:56.111Z,6.70
2018-04-28T06:15:34.547Z,5.03
2018-04-28T06:18:25.761Z,12.17
2018-04-28T06:20:52.849Z,8.10
2018-04-28T06:23:19.210Z,7.90
2018-04-28T06:25:45.536Z,6.57
2018-04-28T06:28:11.905Z,3.63
2018-04-28T06:30:38.927Z,7.60
2018-04-28T06:33:05.307Z,5.47
2018-04-28T06:35:31.710Z,2.97
2018-04-28T06:37:57.966Z,5.20
2018-04-28T06:40:24.324Z,4.57
2018-04-28T06:42:50.727Z,5.03
2018-04-28T06:45:17.084Z,3.27
2018-04-28T06:47:43.411Z,5.20
2018-04-28T06:50:09.713Z,4.93
2018-04-28T06:52:36.756Z,4.67
2018-04-28T06:55:03.848Z,6.50
2018-04-28T06:57:30.136Z,6.20
2018-04-28T06:59:56.522Z,5.37
2018-04-28T07:02:22.833Z,6.80
2018-04-28T07:04:49.150Z,2.17
2018-04-28T07:07:15.449Z,7.00
2018-04-28T07:09:41.771Z,4.13
2018-04-28T07:12:08.114Z,5.20
2018-04-28T07:14:35.200Z,5.80
2018-04-28T07:17:01.560Z,3.37
2018-04-28T07:19:27.887Z,6.10
2018-04-28T07:21:54.233Z,4.50
2018-04-28T07:24:20.537Z,3.90
2018-04-28T07:26:46.875Z,5.53
2018-04-28T07:29:13.264Z,7.93
2018-04-28T07:31:39.545Z,4.87
2018-04-28T07:34:05.873Z,9.43
2018-04-28T07:36:32.216Z,4.67
2018-04-28T07:38:58.532Z,8.83
2018-04-28T07:41:24.939Z,8.37
2018-04-28T07:43:51.275Z,4.10
2018-04-28T07:46:17.601Z,1.87
2018-04-28T07:48:43.953Z,4.00
2018-04-28T07:51:10.348Z,2.53
2018-04-28T07:53:36.660Z,7.30
2018-04-28T07:56:03.778Z,3.30
2018-04-28T07:58:31.144Z,4.30
2018-04-28T08:00:57.477Z,2.93
2018-04-28T08:03:23.809Z,5.20
2018-04-28T08:05:50.109Z,8.93
2018-04-28T08:08:16.425Z,4.93
2018-04-28T08:10:42.750Z,8.93
2018-04-28T08:13:09.140Z,7.93
2018-04-28T08:15:36.902Z,5.27
2018-04-28T08:18:03.164Z,3.00
2018-04-28T08:20:30.215Z,3.53
2018-04-28T08:22:56.515Z,6.20
2018-04-28T08:25:22.830Z,9.70
2018-04-28T08:27:49.117Z,3.47
2018-04-28T08:30:15.494Z,7.83
2018-04-28T08:32:41.798Z,3.70
2018-04-28T08:35:08.098Z,3.47
2018-04-28T08:37:35.139Z,6.83
2018-04-28T08:40:02.236Z,8.70
2018-04-28T08:42:28.585Z,3.87
2018-04-28T08:44:54.947Z,5.97
2018-04-28T08:47:22.088Z,4.57
2018-04-28T08:49:49.141Z,16.80
2018-04-28T08:52:16.252Z,5.70
2018-04-28T08:54:42.558Z,2.10
2018-04-28T08:57:08.907Z,2.53
2018-04-28T08:59:54.078Z,11.90
2018-04-28T09:02:20.410Z,2.40
2018-04-28T09:04:46.744Z,5.97
2018-04-28T09:07:39.396Z,7.60
2018-04-28T09:10:05.735Z,4.53
2018-04-28T09:12:32.044Z,3.17
2018-04-28T09:14:58.390Z,4.10
2018-04-28T09:17:24.684Z,2.70
2018-04-28T09:19:50.976Z,6.33
2018-04-28T09:22:17.253Z,2.90
2018-04-28T09:24:43.601Z,4.00
2018-04-28T09:27:09.899Z,3.60
2018-04-28T09:29:36.952Z,12.80
2018-04-28T09:32:03.219Z,3.73
2018-04-28T09:34:29.538Z,3.50
2018-04-28T09:36:55.841Z,4.30
2018-04-28T09:39:22.896Z,3.47
2018-04-28T09:41:49.217Z,5.50
2018-04-28T09:44:16.234Z,2.17
2018-04-28T09:46:42.601Z,3.33
2018-04-28T09:49:09.643Z,4.27
2018-04-28T09:51:36.728Z,9.03
2018-04-28T09:54:03.051Z,1.17
2018-04-28T09:56:29.370Z,2.40
2018-04-28T09:58:55.753Z,5.13
2018-04-28T10:01:22.014Z,4.03
2018-04-28T10:03:53.897Z,3.70
2018-04-28T10:06:20.218Z,2.47
2018-04-28T10:08:46.498Z,5.90
2018-04-28T10:11:12.797Z,3.17
2018-04-28T10:13:39.157Z,1.77
2018-04-28T10:16:05.425Z,4.97
2018-04-28T10:18:32.498Z,1.97
2018-04-28T10:20:58.786Z,1.57
2018-04-28T10:23:25.128Z,9.07
2018-04-28T10:25:51.465Z,6.20
2018-04-28T10:28:18.545Z,4.80
2018-04-28T10:30:44.885Z,4.70
2018-04-28T10:33:11.197Z,5.77
2018-04-28T10:35:37.536Z,4.87
2018-04-28T10:38:03.868Z,3.13
2018-04-28T10:40:30.194Z,4.23
2018-04-28T10:42:56.529Z,4.33
2018-04-28T10:45:22.864Z,7.83
2018-04-28T10:47:49.227Z,3.47
2018-04-28T10:50:15.541Z,5.63
2018-04-28T10:52:41.816Z,4.73
2018-04-28T10:55:08.150Z,5.43
2018-04-28T10:57:34.426Z,3.13
2018-04-28T11:00:00.795Z,4.27
2018-04-28T11:02:27.874Z,2.17
2018-04-28T11:04:54.936Z,4.20
2018-04-28T11:07:21.233Z,3.17
2018-04-28T11:09:47.505Z,3.27
2018-04-28T11:12:13.835Z,6.70
2018-04-28T11:14:40.129Z,5.57
2018-04-28T11:17:06.606Z,2.27
2018-04-28T11:19:32.891Z,4.07
2018-04-28T11:21:59.158Z,5.97
2018-04-28T11:24:25.516Z,3.70
2018-04-28T11:26:51.810Z,3.40
2018-04-28T11:29:18.125Z,5.30
2018-04-28T11:31:45.161Z,5.33
2018-04-28T11:34:12.209Z,7.07
2018-04-28T11:36:38.483Z,1.50
2018-04-28T11:39:04.810Z,4.37
2018-04-28T11:41:31.069Z,2.20
2018-04-28T11:43:57.368Z,5.97
2018-04-28T11:46:23.702Z,8.80
2018-04-28T11:48:49.957Z,5.73
2018-04-28T11:51:16.235Z,4.27
2018-04-28T11:53:43.291Z,7.63
2018-04-28T11:56:10.354Z,8.07
2018-04-28T11:58:36.675Z,8.30
2018-04-28T12:01:03.031Z,2.90
2018-04-28T12:03:29.405Z,2.63
2018-04-28T12:05:55.741Z,4.30
2018-04-28T12:08:22.135Z,10.07
2018-04-28T12:10:48.429Z,4.13
2018-04-28T12:13:15.470Z,3.00
2018-04-28T12:15:42.522Z,2.80
2018-04-28T12:18:09.568Z,4.37
2018-04-28T12:20:36.617Z,4.83
2018-04-28T12:23:03.702Z,6.73
2018-04-28T12:25:30.197Z,3.47
2018-04-28T12:27:57.211Z,5.20
2018-04-28T12:30:23.575Z,4.30
2018-04-28T12:32:50.594Z,2.97
2018-04-28T12:35:16.900Z,3.57
2018-04-28T12:37:43.185Z,4.60
2018-04-28T12:40:10.249Z,3.57
2018-04-28T12:42:36.608Z,12.00
2018-04-28T12:45:02.999Z,2.50
2018-04-28T12:47:30.027Z,4.73
2018-04-28T12:49:56.373Z,5.10
2018-04-28T12:52:23.414Z,4.20
2018-04-28T12:54:49.744Z,6.73
2018-04-28T12:57:16.048Z,3.03
2018-04-28T12:59:42.343Z,3.57
2018-04-28T13:02:08.634Z,3.43
2018-04-28T13:04:34.947Z,6.63
2018-04-28T13:07:01.245Z,2.60
2018-04-28T13:09:27.738Z,5.70
2018-04-28T13:11:54.776Z,5.50
2018-04-28T13:14:21.444Z,2.97
2018-04-28T13:16:47.746Z,2.13
2018-04-28T13:19:14.796Z,3.10
2018-04-28T13:21:41.833Z,5.43
2018-04-28T13:24:08.151Z,4.07
2018-04-28T13:26:34.444Z,8.00
2018-04-28T13:29:00.719Z,4.03
2018-04-28T13:31:27.033Z,4.57
2018-04-28T13:33:53.339Z,4.43
2018-04-28T13:36:19.625Z,3.27
2018-04-28T13:38:45.999Z,3.93
2018-04-28T13:41:12.327Z,4.40
2018-04-28T13:43:39.372Z,4.83
2018-04-28T13:46:05.729Z,8.07
2018-04-28T13:48:32.064Z,4.53
2018-04-28T13:50:58.566Z,4.00
2018-04-28T13:53:24.937Z,3.43
2018-04-28T13:55:51.207Z,5.77
2018-04-28T13:58:18.246Z,2.33
2018-04-28T14:00:44.542Z,4.83
2018-04-28T14:03:10.857Z,9.20
2018-04-28T14:05:37.154Z,5.60
2018-04-28T14:08:03.451Z,8.83
2018-04-28T14:10:29.766Z,14.50
2018-04-28T14:12:56.141Z,3.70
2018-04-28T14:15:22.510Z,1.53
2018-04-28T14:17:48.824Z,2.47
2018-04-28T14:20:15.254Z,3.80
2018-04-28T14:22:41.571Z,2.53
2018-04-28T14:25:08.672Z,4.97
2018-04-28T14:27:35.006Z,6.23
2018-04-28T14:30:01.374Z,5.57
2018-04-28T14:32:28.134Z,3.00
2018-04-28T14:34:54.509Z,6.50
2018-04-28T14:37:20.858Z,5.23
2018-04-28T14:39:47.204Z,3.70
2018-04-28T14:42:13.551Z,2.97
2018-04-28T14:44:39.832Z,3.53
2018-04-28T14:47:06.934Z,2.30
2018-04-28T14:49:33.952Z,8.43
2018-04-28T14:52:00.255Z,1.53
2018-04-28T14:54:26.530Z,2.07
2018-04-28T14:56:53.546Z,2.87
2018-04-28T14:59:19.803Z,4.10
2018-04-28T15:01:46.065Z,5.53
2018-04-28T15:04:12.348Z,2.63
2018-04-28T15:06:39.540Z,4.70
2018-04-28T15:09:05.902Z,5.17
2018-04-28T15:11:32.282Z,5.20
2018-04-28T15:13:58.611Z,6.60
2018-04-28T15:16:25.762Z,3.57
2018-04-28T15:18:52.119Z,5.87
2018-04-28T15:21:18.474Z,4.60
2018-04-28T15:23:44.839Z,3.90
2018-04-28T15:26:11.152Z,3.43
2018-04-28T15:28:37.492Z,4.87
2018-04-28T15:31:04.614Z,5.13
2018-04-28T15:33:30.943Z,2.33
2018-04-28T15:35:57.190Z,3.77
2018-04-28T15:38:23.517Z,3.53
2018-04-28T15:40:49.818Z,3.73
2018-04-28T15:43:16.130Z,4.37
2018-04-28T15:45:42.474Z,3.87
2018-04-28T15:48:08.777Z,4.53
2018-04-28T15:50:35.160Z,7.90
2018-04-28T15:53:01.505Z,7.10
2018-04-28T15:55:27.798Z,6.93
2018-04-28T15:57:54.100Z,4.90
2018-04-28T16:00:21.332Z,5.80
2018-04-28T16:02:47.648Z,6.33
2018-04-28T16:05:14.007Z,3.13
2018-04-28T16:07:40.297Z,3.20
2018-04-28T16:10:06.595Z,3.80
2018-04-28T16:12:33.595Z,4.33
2018-04-28T16:14:59.910Z,8.00
2018-04-28T16:17:26.251Z,4.70
2018-04-28T16:19:52.562Z,7.50
2018-04-28T16:22:18.836Z,3.60
2018-04-28T16:24:45.565Z,4.63
2018-04-28T16:27:11.901Z,5.50
2018-04-28T16:29:38.371Z,6.07
2018-04-28T16:32:05.427Z,2.83
2018-04-28T16:34:31.751Z,5.60
2018-04-28T16:36:58.954Z,5.43
2018-04-28T16:39:25.311Z,7.50
2018-04-28T16:41:51.602Z,11.63
2018-04-28T16:44:17.838Z,6.40
2018-04-28T16:46:44.151Z,6.63
2018-04-28T16:49:10.763Z,6.67
2018-04-28T16:51:37.837Z,5.20
2018-04-28T16:54:04.108Z,6.40
2018-04-28T16:56:30.418Z,9.50
2018-04-28T16:58:56.763Z,4.13
2018-04-28T17:01:24.056Z,9.10
2018-04-28T17:03:51.098Z,5.07
2018-04-28T17:06:18.995Z,7.03
2018-04-28T17:08:45.289Z,5.70
2018-04-28T17:11:11.595Z,5.90
2018-04-28T17:13:38.203Z,3.67
2018-04-28T17:16:04.629Z,6.57
2018-04-28T17:18:31.101Z,7.10
2018-04-28T17:20:57.406Z,5.60
2018-04-28T17:23:23.788Z,7.27
2018-04-28T17:25:50.063Z,5.50
2018-04-28T17:28:16.412Z,6.20
2018-04-28T17:30:42.709Z,8.83
2018-04-28T17:33:09.041Z,3.27
2018-04-28T17:35:35.338Z,4.67
2018-04-28T17:38:01.622Z,6.60
2018-04-28T17:40:27.940Z,5.00
2018-04-28T17:42:54.894Z,8.70
2018-04-28T17:45:21.207Z,9.37
2018-04-28T17:47:47.531Z,8.00
2018-04-28T17:50:14.551Z,5.17
2018-04-28T17:52:40.839Z,8.10
2018-04-28T17:55:07.148Z,9.07
2018-04-28T17:57:33.438Z,9.70
2018-04-28T17:59:59.910Z,13.00
2018-04-28T18:02:26.247Z,15.10
2018-04-28T18:04:52.911Z,8.43
2018-04-28T18:07:19.359Z,10.23
2018-04-28T18:09:46.457Z,9.40
2018-04-28T18:12:13.467Z,11.50
2018-04-28T18:14:39.920Z,11.90
2018-04-28T18:17:06.272Z,10.27
2018-04-28T18:19:33.378Z,11.20
2018-04-28T18:21:59.711Z,10.40
2018-04-28T18:24:26.039Z,14.30
2018-04-28T18:26:52.339Z,21.80
2018-04-28T18:29:18.643Z,13.80
2018-04-28T18:31:45.656Z,10.63
2018-04-28T18:34:11.966Z,9.27
2018-04-28T18:36:38.346Z,13.57
2018-04-28T18:39:05.664Z,15.00
2018-04-28T18:41:31.956Z,16.50
2018-04-28T18:43:58.275Z,17.43
2018-04-28T18:46:24.692Z,12.10
2018-04-28T18:48:50.963Z,13.00
2018-04-28T18:51:17.308Z,8.27
2018-04-28T18:53:44.354Z,17.93
2018-04-28T18:56:10.734Z,14.03
2018-04-28T18:58:37.775Z,12.07
2018-04-28T19:01:04.099Z,13.17
2018-04-28T19:03:30.554Z,11.57
2018-04-28T19:05:57.632Z,17.43
2018-04-28T19:08:23.965Z,12.97
2018-04-28T19:10:50.291Z,12.20
2018-04-28T19:13:16.642Z,13.47
2018-04-28T19:15:43.122Z,10.07
2018-04-28T19:18:09.490Z,8.87
2018-04-28T19:20:35.876Z,23.33
2018-04-28T19:23:02.333Z,11.83
2018-04-28T19:25:29.389Z,12.03
2018-04-28T19:27:55.704Z,14.80
2018-04-28T19:30:22.909Z,20.17
2018-04-28T19:32:49.252Z,20.50
2018-04-28T19:35:15.560Z,31.60
2018-04-28T19:37:41.873Z,29.20
2018-04-28T19:40:08.312Z,30.70
2018-04-28T19:42:34.626Z,27.00
2018-04-28T19:45:02.794Z,34.23
2018-04-28T19:47:29.141Z,21.73
2018-04-28T19:49:55.510Z,21.80
2018-04-28T19:52:21.890Z,20.60
2018-04-28T19:54:48.977Z,19.73
2018-04-28T19:57:15.299Z,20.70
2018-04-28T19:59:41.656Z,10.00
2018-04-28T20:02:07.967Z,19.87
2018-04-28T20:04:34.281Z,16.03
2018-04-28T20:07:00.633Z,24.50
2018-04-28T20:09:27.058Z,15.77
2018-04-28T20:11:53.364Z,10.20
2018-04-28T20:14:19.720Z,10.70
2018-04-28T20:16:46.097Z,16.37
2018-04-28T20:19:12.517Z,15.30
2018-04-28T20:21:38.871Z,21.23
2018-04-28T20:24:23.843Z,22.50
2018-04-28T20:26:50.986Z,20.27
2018-04-28T20:29:17.275Z,13.07
2018-04-28T20:31:43.571Z,16.27
2018-04-28T20:34:10.632Z,16.20
2018-04-28T20:36:36.994Z,15.90
2018-04-28T20:39:03.314Z,19.70
2018-04-28T20:41:29.650Z,15.37
2018-04-28T20:43:55.934Z,18.87
2018-04-28T20:46:22.982Z,20.17
2018-04-28T20:48:50.055Z,18.23
2018-04-28T20:51:16.416Z,19.13
2018-04-28T20:53:42.696Z,16.70
2018-04-28T20:56:09.833Z,17.53
2018-04-28T20:58:36.116Z,12.63
2018-04-28T21:01:02.865Z,14.90
2018-04-28T21:03:29.881Z,14.20
2018-04-28T21:05:56.172Z,12.87
2018-04-28T21:08:22.607Z,16.93
2018-04-28T21:10:48.891Z,15.23
2018-04-28T21:13:15.163Z,17.27
2018-04-28T21:15:41.557Z,16.60
2018-04-28T21:18:07.859Z,18.70
2018-04-28T21:20:34.879Z,12.53
2018-04-28T21:23:01.262Z,19.23
2018-04-28T21:25:27.797Z,19.17
2018-04-28T21:27:54.099Z,12.63
2018-04-28T21:30:21.120Z,14.33
2018-04-28T21:32:47.368Z,16.40
2018-04-28T21:35:14.430Z,16.50
2018-04-28T21:37:41.584Z,17.30
2018-04-28T21:40:07.870Z,16.43
2018-04-28T21:42:34.177Z,15.33
2018-04-28T21:45:00.495Z,18.67
2018-04-28T21:47:27.557Z,13.93
2018-04-28T21:49:53.887Z,17.40
2018-04-28T21:52:20.216Z,14.73
2018-04-28T21:54:46.505Z,17.57
2018-04-28T21:57:13.522Z,15.17
2018-04-28T21:59:39.868Z,14.40
2018-04-28T22:02:06.189Z,12.90
2018-04-28T22:04:32.507Z,16.40
2018-04-28T22:06:59.524Z,18.67
2018-04-28T22:09:25.838Z,19.00
2018-04-28T22:11:52.181Z,20.13
2018-04-28T22:14:18.458Z,17.33
2018-04-28T22:16:44.791Z,16.00
2018-04-28T22:19:12.052Z,13.20
2018-04-28T22:21:38.397Z,13.23
2018-04-28T22:24:05.437Z,13.60
2018-04-28T22:26:31.744Z,13.13
2018-04-28T22:28:58.027Z,14.27
2018-04-28T22:31:24.338Z,16.87
2018-04-28T22:33:51.368Z,14.20
2018-04-28T22:36:17.674Z,17.50
2018-04-28T22:38:43.958Z,14.03
2018-04-28T22:41:10.246Z,14.23
2018-04-28T22:43:36.515Z,11.40
2018-04-28T22:46:03.613Z,12.20
2018-04-28T22:48:29.895Z,13.13
2018-04-28T22:50:56.902Z,16.10
2018-04-28T22:53:23.189Z,13.40
2018-04-28T22:55:49.505Z,11.50
2018-04-28T22:58:16.517Z,20.13
2018-04-28T23:00:42.839Z,14.73
2018-04-28T23:03:09.169Z,13.93
2018-04-28T23:05:35.473Z,14.93
2018-04-28T23:08:01.773Z,15.13
2018-04-28T23:10:28.830Z,18.20
2018-04-28T23:12:55.114Z,13.20
2018-04-28T23:15:22.131Z,12.87
2018-04-28T23:17:48.444Z,11.80
2018-04-28T23:20:14.731Z,15.27
2018-04-28T23:22:41.060Z,23.90
2018-04-28T23:25:07.327Z,13.73
2018-04-28T23:27:33.667Z,15.87
2018-04-28T23:29:59.958Z,14.07
2018-04-28T23:32:26.306Z,12.00
2018-04-28T23:34:53.354Z,12.67
2018-04-28T23:37:20.382Z,17.13
2018-04-28T23:39:46.639Z,16.33
2018-04-28T23:42:12.919Z,15.83
2018-04-28T23:44:39.203Z,17.13
2018-04-28T23:47:05.485Z,14.20
2018-04-28T23:49:31.816Z,16.70
2018-04-28T23:51:58.129Z,17.90
2018-04-28T23:54:24.450Z,14.60
2018-04-28T23:56:50.789Z,21.00
2018-04-28T23:59:17.128Z,21.23
